sensor_id;sensor_type;location;lat;lon;timestamp;P1;durP1;ratioP1;P2;durP2;ratioP2
16099;SDS011;8154;50.830;12.082;2023-03-12T00:01:55;1.55;;;1.45;;
16099;SDS011;8154;50.830;12.082;2023-03-12T00:04:24;1.50;;;1.40;;
16099;SDS011;8154;50.830;12.082;2023-03-12T00:06:50;1.48;;;1.38;;
16099;SDS011;8154;50.830;12.082;2023-03-12T00:09:16;1.50;;;1.40;;
16099;SDS011;8154;50.830;12.082;2023-03-12T00:11:43;1.40;;;1.30;;
16099;SDS011;8154;50.830;12.082;2023-03-12T00:14:09;1.73;;;1.63;;
16099;SDS011;8154;50.830;12.082;2023-03-12T00:16:35;1.48;;;1.38;;
16099;SDS011;8154;50.830;12.082;2023-03-12T00:19:01;1.50;;;1.40;;
16099;SDS011;8154;50.830;12.082;2023-03-12T00:21:27;1.42;;;1.33;;
16099;SDS011;8154;50.830;12.082;2023-03-12T00:23:53;1.50;;;1.40;;
16099;SDS011;8154;50.830;12.082;2023-03-12T00:26:20;1.50;;;1.40;;
16099;SDS011;8154;50.830;12.082;2023-03-12T00:28:46;1.58;;;1.48;;
16099;SDS011;8154;50.830;12.082;2023-03-12T00:31:15;1.40;;;1.30;;
16099;SDS011;8154;50.830;12.082;2023-03-12T00:33:43;1.52;;;1.42;;
16099;SDS011;8154;50.830;12.082;2023-03-12T00:36:09;1.40;;;1.30;;
16099;SDS011;8154;50.830;12.082;2023-03-12T00:38:35;1.50;;;1.40;;
16099;SDS011;8154;50.830;12.082;2023-03-12T00:41:01;1.50;;;1.40;;
16099;SDS011;8154;50.830;12.082;2023-03-12T00:43:27;1.50;;;1.40;;
16099;SDS011;8154;50.830;12.082;2023-03-12T00:45:54;1.50;;;1.40;;
16099;SDS011;8154;50.830;12.082;2023-03-12T00:48:21;1.40;;;1.30;;
16099;SDS011;8154;50.830;12.082;2023-03-12T00:50:47;1.48;;;1.38;;
16099;SDS011;8154;50.830;12.082;2023-03-12T00:53:13;1.50;;;1.40;;
16099;SDS011;8154;50.830;12.082;2023-03-12T00:55:40;1.40;;;1.30;;
16099;SDS011;8154;50.830;12.082;2023-03-12T00:58:06;1.30;;;1.20;;
16099;SDS011;8154;50.830;12.082;2023-03-12T01:00:34;1.60;;;1.50;;
16099;SDS011;8154;50.830;12.082;2023-03-12T01:03:00;1.42;;;1.33;;
16099;SDS011;8154;50.830;12.082;2023-03-12T01:05:26;1.40;;;1.30;;
16099;SDS011;8154;50.830;12.082;2023-03-12T01:07:52;1.40;;;1.30;;
16099;SDS011;8154;50.830;12.082;2023-03-12T01:10:18;1.58;;;1.48;;
16099;SDS011;8154;50.830;12.082;2023-03-12T01:12:45;1.40;;;1.30;;
16099;SDS011;8154;50.830;12.082;2023-03-12T01:15:13;1.40;;;1.30;;
16099;SDS011;8154;50.830;12.082;2023-03-12T01:17:41;1.40;;;1.30;;
16099;SDS011;8154;50.830;12.082;2023-03-12T01:20:07;1.42;;;1.33;;
16099;SDS011;8154;50.830;12.082;2023-03-12T01:22:35;1.50;;;1.40;;
16099;SDS011;8154;50.830;12.082;2023-03-12T01:25:02;1.40;;;1.30;;
16099;SDS011;8154;50.830;12.082;2023-03-12T01:27:29;1.50;;;1.40;;
16099;SDS011;8154;50.830;12.082;2023-03-12T01:29:55;1.40;;;1.30;;
16099;SDS011;8154;50.830;12.082;2023-03-12T01:32:21;1.70;;;1.60;;
16099;SDS011;8154;50.830;12.082;2023-03-12T01:34:47;1.23;;;1.23;;
16099;SDS011;8154;50.830;12.082;2023-03-12T01:37:15;1.50;;;1.40;;
16099;SDS011;8154;50.830;12.082;2023-03-12T01:39:41;1.30;;;1.20;;
16099;SDS011;8154;50.830;12.082;2023-03-12T01:42:07;1.30;;;1.20;;
16099;SDS011;8154;50.830;12.082;2023-03-12T01:44:52;1.20;;;1.20;;
16099;SDS011;8154;50.830;12.082;2023-03-12T01:47:26;1.38;;;1.27;;
16099;SDS011;8154;50.830;12.082;2023-03-12T01:49:56;1.40;;;1.30;;
16099;SDS011;8154;50.830;12.082;2023-03-12T01:52:34;1.48;;;1.38;;
16099;SDS011;8154;50.830;12.082;2023-03-12T01:55:07;1.42;;;1.33;;
16099;SDS011;8154;50.830;12.082;2023-03-12T01:57:58;1.40;;;1.30;;
16099;SDS011;8154;50.830;12.082;2023-03-12T05:00:52;1.10;;;1.10;;
16099;SDS011;8154;50.830;12.082;2023-03-12T05:03:18;1.10;;;1.10;;
16099;SDS011;8154;50.830;12.082;2023-03-12T05:05:44;1.10;;;1.10;;
16099;SDS011;8154;50.830;12.082;2023-03-12T05:08:10;1.02;;;1.02;;
16099;SDS011;8154;50.830;12.082;2023-03-12T05:10:36;0.95;;;0.95;;
16099;SDS011;8154;50.830;12.082;2023-03-12T05:13:02;1.20;;;1.10;;
16099;SDS011;8154;50.830;12.082;2023-03-12T05:15:28;1.20;;;1.10;;
16099;SDS011;8154;50.830;12.082;2023-03-12T05:17:55;1.00;;;1.00;;
16099;SDS011;8154;50.830;12.082;2023-03-12T05:20:20;1.05;;;1.05;;
16099;SDS011;8154;50.830;12.082;2023-03-12T05:22:46;1.27;;;1.17;;
16099;SDS011;8154;50.830;12.082;2023-03-12T05:25:13;1.00;;;1.00;;
16099;SDS011;8154;50.830;12.082;2023-03-12T05:27:39;1.00;;;1.00;;
16099;SDS011;8154;50.830;12.082;2023-03-12T05:30:05;1.00;;;1.00;;
16099;SDS011;8154;50.830;12.082;2023-03-12T05:32:32;1.08;;;1.08;;
16099;SDS011;8154;50.830;12.082;2023-03-12T05:34:58;1.05;;;1.05;;
16099;SDS011;8154;50.830;12.082;2023-03-12T05:37:24;1.30;;;1.20;;
16099;SDS011;8154;50.830;12.082;2023-03-12T05:39:52;1.10;;;1.10;;
16099;SDS011;8154;50.830;12.082;2023-03-12T05:42:18;1.00;;;1.00;;
16099;SDS011;8154;50.830;12.082;2023-03-12T05:44:44;0.90;;;0.90;;
16099;SDS011;8154;50.830;12.082;2023-03-12T05:47:11;1.10;;;1.10;;
16099;SDS011;8154;50.830;12.082;2023-03-12T05:49:36;1.02;;;1.00;;
16099;SDS011;8154;50.830;12.082;2023-03-12T05:52:03;1.00;;;1.00;;
16099;SDS011;8154;50.830;12.082;2023-03-12T05:54:30;1.05;;;1.05;;
16099;SDS011;8154;50.830;12.082;2023-03-12T05:56:56;1.00;;;1.00;;
16099;SDS011;8154;50.830;12.082;2023-03-12T08:47:19;1.00;;;1.00;;
16099;SDS011;8154;50.830;12.082;2023-03-12T08:49:46;0.90;;;0.90;;
16099;SDS011;8154;50.830;12.082;2023-03-12T08:52:11;0.90;;;0.90;;
16099;SDS011;8154;50.830;12.082;2023-03-12T08:54:38;0.90;;;0.90;;
16099;SDS011;8154;50.830;12.082;2023-03-12T08:57:04;0.90;;;0.90;;
16099;SDS011;8154;50.830;12.082;2023-03-12T08:59:30;1.50;;;0.80;;
16099;SDS011;8154;50.830;12.082;2023-03-12T09:01:56;0.70;;;0.70;;
16099;SDS011;8154;50.830;12.082;2023-03-12T09:04:22;0.95;;;0.95;;
16099;SDS011;8154;50.830;12.082;2023-03-12T09:06:48;0.80;;;0.80;;
16099;SDS011;8154;50.830;12.082;2023-03-12T09:09:14;0.90;;;0.90;;
16099;SDS011;8154;50.830;12.082;2023-03-12T09:11:40;0.90;;;0.90;;
16099;SDS011;8154;50.830;12.082;2023-03-12T09:14:06;0.80;;;0.80;;
16099;SDS011;8154;50.830;12.082;2023-03-12T09:16:33;0.90;;;0.90;;
16099;SDS011;8154;50.830;12.082;2023-03-12T09:18:59;0.80;;;0.80;;
16099;SDS011;8154;50.830;12.082;2023-03-12T09:21:25;0.90;;;0.90;;
16099;SDS011;8154;50.830;12.082;2023-03-12T09:23:51;0.90;;;0.90;;
16099;SDS011;8154;50.830;12.082;2023-03-12T09:26:21;1.23;;;0.90;;
16099;SDS011;8154;50.830;12.082;2023-03-12T09:28:48;0.80;;;0.80;;
16099;SDS011;8154;50.830;12.082;2023-03-12T09:31:14;0.80;;;0.80;;
16099;SDS011;8154;50.830;12.082;2023-03-12T09:33:40;1.00;;;1.00;;
16099;SDS011;8154;50.830;12.082;2023-03-12T09:36:06;0.75;;;0.75;;
16099;SDS011;8154;50.830;12.082;2023-03-12T09:38:33;0.90;;;0.90;;
16099;SDS011;8154;50.830;12.082;2023-03-12T09:41:00;1.00;;;1.00;;
16099;SDS011;8154;50.830;12.082;2023-03-12T12:40:26;0.80;;;0.80;;
16099;SDS011;8154;50.830;12.082;2023-03-12T12:42:58;0.80;;;0.80;;
16099;SDS011;8154;50.830;12.082;2023-03-12T12:45:45;0.80;;;0.80;;
16099;SDS011;8154;50.830;12.082;2023-03-12T13:46:34;0.82;;;0.82;;
16099;SDS011;8154;50.830;12.082;2023-03-12T13:49:05;0.90;;;0.90;;
16099;SDS011;8154;50.830;12.082;2023-03-12T13:51:46;0.80;;;0.80;;
16099;SDS011;8154;50.830;12.082;2023-03-12T13:54:24;0.70;;;0.70;;
16099;SDS011;8154;50.830;12.082;2023-03-12T13:56:57;0.77;;;0.77;;
16099;SDS011;8154;50.830;12.082;2023-03-12T13:59:26;0.80;;;0.80;;
16099;SDS011;8154;50.830;12.082;2023-03-12T14:01:57;0.90;;;0.90;;
16099;SDS011;8154;50.830;12.082;2023-03-12T14:04:36;0.80;;;0.80;;
16099;SDS011;8154;50.830;12.082;2023-03-12T14:16:28;0.80;;;0.80;;
16099;SDS011;8154;50.830;12.082;2023-03-12T14:19:02;0.80;;;0.80;;
16099;SDS011;8154;50.830;12.082;2023-03-12T14:21:33;0.88;;;0.88;;
16099;SDS011;8154;50.830;12.082;2023-03-12T14:24:03;0.80;;;0.80;;
16099;SDS011;8154;50.830;12.082;2023-03-12T14:26:33;0.80;;;0.80;;
16099;SDS011;8154;50.830;12.082;2023-03-12T14:29:03;0.70;;;0.70;;
16099;SDS011;8154;50.830;12.082;2023-03-12T14:31:34;1.00;;;1.00;;
16099;SDS011;8154;50.830;12.082;2023-03-12T14:39:45;0.80;;;0.80;;
16099;SDS011;8154;50.830;12.082;2023-03-12T14:42:36;0.70;;;0.70;;
16099;SDS011;8154;50.830;12.082;2023-03-12T16:46:57;0.80;;;0.80;;
16099;SDS011;8154;50.830;12.082;2023-03-12T16:49:24;0.70;;;0.70;;
16099;SDS011;8154;50.830;12.082;2023-03-12T16:51:50;0.70;;;0.70;;
16099;SDS011;8154;50.830;12.082;2023-03-12T16:54:17;0.70;;;0.70;;
16099;SDS011;8154;50.830;12.082;2023-03-12T16:56:44;0.73;;;0.73;;
16099;SDS011;8154;50.830;12.082;2023-03-12T16:59:22;0.70;;;0.70;;
16099;SDS011;8154;50.830;12.082;2023-03-12T17:01:50;0.80;;;0.80;;
16099;SDS011;8154;50.830;12.082;2023-03-12T17:04:17;0.70;;;0.70;;
16099;SDS011;8154;50.830;12.082;2023-03-12T17:06:43;0.80;;;0.80;;
16099;SDS011;8154;50.830;12.082;2023-03-12T17:09:09;0.65;;;0.65;;
16099;SDS011;8154;50.830;12.082;2023-03-12T17:11:35;0.80;;;0.80;;
16099;SDS011;8154;50.830;12.082;2023-03-12T17:14:03;0.70;;;0.70;;
16099;SDS011;8154;50.830;12.082;2023-03-12T17:16:41;0.65;;;0.65;;
16099;SDS011;8154;50.830;12.082;2023-03-12T17:19:07;0.73;;;0.73;;
16099;SDS011;8154;50.830;12.082;2023-03-12T17:21:33;0.70;;;0.70;;
16099;SDS011;8154;50.830;12.082;2023-03-12T17:23:59;0.60;;;0.60;;
16099;SDS011;8154;50.830;12.082;2023-03-12T17:26:25;0.70;;;0.70;;
16099;SDS011;8154;50.830;12.082;2023-03-12T17:28:51;0.80;;;0.80;;
16099;SDS011;8154;50.830;12.082;2023-03-12T17:31:17;0.80;;;0.80;;
16099;SDS011;8154;50.830;12.082;2023-03-12T17:33:43;0.63;;;0.63;;
16099;SDS011;8154;50.830;12.082;2023-03-12T17:36:09;0.73;;;0.73;;
16099;SDS011;8154;50.830;12.082;2023-03-12T17:38:36;0.77;;;0.77;;
16099;SDS011;8154;50.830;12.082;2023-03-12T17:41:03;0.70;;;0.70;;
16099;SDS011;8154;50.830;12.082;2023-03-12T17:43:30;0.82;;;0.68;;
16099;SDS011;8154;50.830;12.082;2023-03-12T17:46:04;0.60;;;0.60;;
16099;SDS011;8154;50.830;12.082;2023-03-12T17:48:32;0.63;;;0.63;;
16099;SDS011;8154;50.830;12.082;2023-03-12T17:51:03;0.70;;;0.70;;
16099;SDS011;8154;50.830;12.082;2023-03-12T17:53:34;0.70;;;0.70;;
16099;SDS011;8154;50.830;12.082;2023-03-12T17:56:04;0.80;;;0.80;;
16099;SDS011;8154;50.830;12.082;2023-03-12T17:58:32;0.63;;;0.63;;
16099;SDS011;8154;50.830;12.082;2023-03-12T18:00:58;0.60;;;0.60;;
16099;SDS011;8154;50.830;12.082;2023-03-12T18:03:24;0.65;;;0.65;;
16099;SDS011;8154;50.830;12.082;2023-03-12T18:05:50;0.60;;;0.60;;
16099;SDS011;8154;50.830;12.082;2023-03-12T18:08:17;0.68;;;0.68;;
16099;SDS011;8154;50.830;12.082;2023-03-12T18:10:43;0.75;;;0.75;;
16099;SDS011;8154;50.830;12.082;2023-03-12T18:13:10;0.52;;;0.52;;
16099;SDS011;8154;50.830;12.082;2023-03-12T18:15:36;0.68;;;0.68;;
16099;SDS011;8154;50.830;12.082;2023-03-12T18:18:02;0.70;;;0.70;;
16099;SDS011;8154;50.830;12.082;2023-03-12T18:20:28;0.80;;;0.80;;
16099;SDS011;8154;50.830;12.082;2023-03-12T18:22:54;0.60;;;0.60;;
16099;SDS011;8154;50.830;12.082;2023-03-12T18:25:21;0.70;;;0.70;;
16099;SDS011;8154;50.830;12.082;2023-03-12T18:27:47;0.57;;;0.57;;
16099;SDS011;8154;50.830;12.082;2023-03-12T18:30:13;0.70;;;0.70;;
16099;SDS011;8154;50.830;12.082;2023-03-12T18:32:39;0.70;;;0.70;;
16099;SDS011;8154;50.830;12.082;2023-03-12T18:35:06;0.70;;;0.70;;
16099;SDS011;8154;50.830;12.082;2023-03-12T18:37:32;0.70;;;0.70;;
16099;SDS011;8154;50.830;12.082;2023-03-12T18:39:58;0.70;;;0.70;;
16099;SDS011;8154;50.830;12.082;2023-03-12T18:42:25;0.70;;;0.70;;
16099;SDS011;8154;50.830;12.082;2023-03-12T18:44:51;0.70;;;0.70;;
16099;SDS011;8154;50.830;12.082;2023-03-12T18:47:17;0.60;;;0.60;;
16099;SDS011;8154;50.830;12.082;2023-03-12T18:49:43;0.80;;;0.80;;
16099;SDS011;8154;50.830;12.082;2023-03-12T18:52:09;0.70;;;0.70;;
16099;SDS011;8154;50.830;12.082;2023-03-12T18:54:35;0.65;;;0.65;;
16099;SDS011;8154;50.830;12.082;2023-03-12T18:57:03;0.60;;;0.60;;
16099;SDS011;8154;50.830;12.082;2023-03-12T18:59:29;0.50;;;0.50;;
16099;SDS011;8154;50.830;12.082;2023-03-12T19:01:55;0.80;;;0.80;;
16099;SDS011;8154;50.830;12.082;2023-03-12T19:04:21;0.65;;;0.65;;
16099;SDS011;8154;50.830;12.082;2023-03-12T19:06:47;0.60;;;0.60;;
16099;SDS011;8154;50.830;12.082;2023-03-12T19:09:14;0.68;;;0.68;;
16099;SDS011;8154;50.830;12.082;2023-03-12T19:11:40;0.70;;;0.70;;
16099;SDS011;8154;50.830;12.082;2023-03-12T19:14:06;0.60;;;0.60;;
16099;SDS011;8154;50.830;12.082;2023-03-12T19:16:34;0.70;;;0.70;;
16099;SDS011;8154;50.830;12.082;2023-03-12T19:19:00;0.60;;;0.60;;
16099;SDS011;8154;50.830;12.082;2023-03-12T19:21:26;0.60;;;0.60;;
16099;SDS011;8154;50.830;12.082;2023-03-12T19:23:53;0.52;;;0.52;;
16099;SDS011;8154;50.830;12.082;2023-03-12T19:26:20;0.60;;;0.60;;
16099;SDS011;8154;50.830;12.082;2023-03-12T19:28:46;0.70;;;0.70;;
16099;SDS011;8154;50.830;12.082;2023-03-12T19:31:13;0.70;;;0.70;;
16099;SDS011;8154;50.830;12.082;2023-03-12T19:33:40;0.68;;;0.68;;
16099;SDS011;8154;50.830;12.082;2023-03-12T19:36:07;0.70;;;0.70;;
16099;SDS011;8154;50.830;12.082;2023-03-12T19:38:34;0.60;;;0.60;;
16099;SDS011;8154;50.830;12.082;2023-03-12T19:41:00;0.60;;;0.60;;
16099;SDS011;8154;50.830;12.082;2023-03-12T19:43:29;0.60;;;0.60;;
16099;SDS011;8154;50.830;12.082;2023-03-12T19:45:56;0.82;;;0.82;;
16099;SDS011;8154;50.830;12.082;2023-03-12T19:48:22;0.60;;;0.60;;
16099;SDS011;8154;50.830;12.082;2023-03-12T19:50:49;0.70;;;0.70;;
16099;SDS011;8154;50.830;12.082;2023-03-12T19:53:20;0.60;;;0.60;;
16099;SDS011;8154;50.830;12.082;2023-03-12T19:55:47;0.70;;;0.70;;
16099;SDS011;8154;50.830;12.082;2023-03-12T19:58:14;0.75;;;0.75;;
16099;SDS011;8154;50.830;12.082;2023-03-12T20:00:42;0.60;;;0.60;;
16099;SDS011;8154;50.830;12.082;2023-03-12T20:03:09;0.60;;;0.60;;
16099;SDS011;8154;50.830;12.082;2023-03-12T20:05:35;0.70;;;0.70;;
16099;SDS011;8154;50.830;12.082;2023-03-12T20:08:02;0.50;;;0.50;;
16099;SDS011;8154;50.830;12.082;2023-03-12T20:10:30;0.60;;;0.60;;
16099;SDS011;8154;50.830;12.082;2023-03-12T20:12:57;0.65;;;0.65;;
16099;SDS011;8154;50.830;12.082;2023-03-12T20:15:23;0.68;;;0.68;;
16099;SDS011;8154;50.830;12.082;2023-03-12T20:17:52;0.60;;;0.60;;
16099;SDS011;8154;50.830;12.082;2023-03-12T20:20:25;0.60;;;0.60;;
16099;SDS011;8154;50.830;12.082;2023-03-12T20:22:51;0.70;;;0.70;;
16099;SDS011;8154;50.830;12.082;2023-03-12T20:25:18;0.70;;;0.70;;
16099;SDS011;8154;50.830;12.082;2023-03-12T20:27:44;0.63;;;0.63;;
16099;SDS011;8154;50.830;12.082;2023-03-12T20:30:12;0.60;;;0.60;;
16099;SDS011;8154;50.830;12.082;2023-03-12T20:32:39;0.65;;;0.65;;
16099;SDS011;8154;50.830;12.082;2023-03-12T20:35:07;0.68;;;0.68;;
16099;SDS011;8154;50.830;12.082;2023-03-12T20:37:34;0.60;;;0.60;;
16099;SDS011;8154;50.830;12.082;2023-03-12T20:40:00;0.60;;;0.60;;
16099;SDS011;8154;50.830;12.082;2023-03-12T20:42:27;0.70;;;0.70;;
16099;SDS011;8154;50.830;12.082;2023-03-12T20:44:53;0.60;;;0.60;;
16099;SDS011;8154;50.830;12.082;2023-03-12T20:47:19;0.50;;;0.50;;
16099;SDS011;8154;50.830;12.082;2023-03-12T20:49:45;0.70;;;0.70;;
16099;SDS011;8154;50.830;12.082;2023-03-12T20:52:11;0.70;;;0.70;;
16099;SDS011;8154;50.830;12.082;2023-03-12T20:54:38;0.57;;;0.57;;
16099;SDS011;8154;50.830;12.082;2023-03-12T20:57:04;0.60;;;0.60;;
16099;SDS011;8154;50.830;12.082;2023-03-12T20:59:30;0.57;;;0.57;;
16099;SDS011;8154;50.830;12.082;2023-03-12T21:01:56;0.70;;;0.70;;
16099;SDS011;8154;50.830;12.082;2023-03-12T21:04:22;0.68;;;0.68;;
16099;SDS011;8154;50.830;12.082;2023-03-12T21:06:48;0.60;;;0.60;;
16099;SDS011;8154;50.830;12.082;2023-03-12T21:09:16;0.70;;;0.70;;
16099;SDS011;8154;50.830;12.082;2023-03-12T21:11:43;0.70;;;0.70;;
16099;SDS011;8154;50.830;12.082;2023-03-12T21:14:09;0.60;;;0.60;;
16099;SDS011;8154;50.830;12.082;2023-03-12T21:16:35;0.60;;;0.60;;
16099;SDS011;8154;50.830;12.082;2023-03-12T21:19:01;0.70;;;0.70;;
16099;SDS011;8154;50.830;12.082;2023-03-12T21:21:39;0.70;;;0.70;;
16099;SDS011;8154;50.830;12.082;2023-03-12T21:24:07;0.60;;;0.60;;
16099;SDS011;8154;50.830;12.082;2023-03-12T21:26:33;0.60;;;0.60;;
16099;SDS011;8154;50.830;12.082;2023-03-12T21:29:01;0.65;;;0.65;;
16099;SDS011;8154;50.830;12.082;2023-03-12T21:31:32;0.70;;;0.70;;
16099;SDS011;8154;50.830;12.082;2023-03-12T21:33:58;0.60;;;0.60;;
16099;SDS011;8154;50.830;12.082;2023-03-12T21:36:24;0.60;;;0.60;;
16099;SDS011;8154;50.830;12.082;2023-03-12T21:38:51;0.70;;;0.70;;
16099;SDS011;8154;50.830;12.082;2023-03-12T21:41:18;0.60;;;0.60;;
16099;SDS011;8154;50.830;12.082;2023-03-12T21:43:45;0.60;;;0.60;;
16099;SDS011;8154;50.830;12.082;2023-03-12T22:44:28;0.70;;;0.70;;
16099;SDS011;8154;50.830;12.082;2023-03-12T22:46:56;0.70;;;0.70;;
16099;SDS011;8154;50.830;12.082;2023-03-12T22:49:22;0.80;;;0.80;;
16099;SDS011;8154;50.830;12.082;2023-03-12T22:51:48;0.70;;;0.70;;
16099;SDS011;8154;50.830;12.082;2023-03-12T22:54:14;0.70;;;0.70;;
16099;SDS011;8154;50.830;12.082;2023-03-12T22:56:41;0.80;;;0.80;;
16099;SDS011;8154;50.830;12.082;2023-03-12T22:59:06;0.60;;;0.60;;
16099;SDS011;8154;50.830;12.082;2023-03-12T23:01:32;0.63;;;0.63;;
16099;SDS011;8154;50.830;12.082;2023-03-12T23:03:58;0.60;;;0.60;;
16099;SDS011;8154;50.830;12.082;2023-03-12T23:06:26;0.60;;;0.60;;
16099;SDS011;8154;50.830;12.082;2023-03-12T23:08:54;0.70;;;0.70;;
16099;SDS011;8154;50.830;12.082;2023-03-12T23:11:20;0.55;;;0.55;;
16099;SDS011;8154;50.830;12.082;2023-03-12T23:13:49;0.60;;;0.60;;
16099;SDS011;8154;50.830;12.082;2023-03-12T23:16:17;0.60;;;0.60;;
16099;SDS011;8154;50.830;12.082;2023-03-12T23:18:45;0.70;;;0.70;;
16099;SDS011;8154;50.830;12.082;2023-03-12T23:21:12;0.60;;;0.60;;
16099;SDS011;8154;50.830;12.082;2023-03-12T23:23:40;0.70;;;0.70;;
16099;SDS011;8154;50.830;12.082;2023-03-12T23:26:11;0.60;;;0.60;;
16099;SDS011;8154;50.830;12.082;2023-03-12T23:28:42;0.82;;;0.80;;
16099;SDS011;8154;50.830;12.082;2023-03-12T23:31:09;0.60;;;0.60;;
16099;SDS011;8154;50.830;12.082;2023-03-12T23:33:35;0.70;;;0.70;;
16099;SDS011;8154;50.830;12.082;2023-03-12T23:36:06;0.60;;;0.60;;
16099;SDS011;8154;50.830;12.082;2023-03-12T23:38:36;0.60;;;0.60;;
16099;SDS011;8154;50.830;12.082;2023-03-12T23:41:06;0.70;;;0.70;;
16099;SDS011;8154;50.830;12.082;2023-03-12T23:43:37;0.95;;;0.73;;
16099;SDS011;8154;50.830;12.082;2023-03-12T23:46:04;0.70;;;0.70;;
16099;SDS011;8154;50.830;12.082;2023-03-12T23:48:32;0.80;;;0.80;;
16099;SDS011;8154;50.830;12.082;2023-03-12T23:51:03;0.80;;;0.80;;
16099;SDS011;8154;50.830;12.082;2023-03-12T23:53:37;0.70;;;0.70;;
16099;SDS011;8154;50.830;12.082;2023-03-12T23:56:06;0.70;;;0.70;;
16099;SDS011;8154;50.830;12.082;2023-03-12T23:58:33;0.90;;;0.90;;
